JLY1182 SBSP-SBRJ
Flight info
| Callsign | JLY1182 |
|---|---|
| Flight time | N/A |
| Altitude | 25000 |
| Route | NIBRU UZ171 KEVUN |
| Aircraft | B738/M-SDE2E3FGHIRWXY/LB1 |
Departure
| Time | 2026-05-03 22:48 |
|---|---|
| Airport | Congonhas–Deputado Freitas Nobre Airport (SBSP) |
Arrival
| Time | N/A |
|---|---|
| Airport | Santos Dumont Airport (SBRJ) |
| Time | Latitude | Longitude | Altitude | Speed | Heading |
|---|---|---|---|---|---|
| 2026-05-03 22:24 | -23.62687 | -46.65841 | 2600 ft | 0 kts | 237° |
| 2026-05-03 22:40 | -23.62681 | -46.65832 | 2600 ft | 4 kts | 246° |
| 2026-05-03 22:40 | -23.62677 | -46.65805 | 2600 ft | 4 kts | 291° |
| 2026-05-03 22:40 | -23.62689 | -46.65787 | 2600 ft | 1 kts | 328° |
| 2026-05-03 22:42 | -23.62680 | -46.65791 | 2600 ft | 6 kts | 342° |
| 2026-05-03 22:42 | -23.62592 | -46.65812 | 2601 ft | 19 kts | 338° |
| 2026-05-03 22:42 | -23.62527 | -46.65851 | 2601 ft | 12 kts | 329° |
| 2026-05-03 22:43 | -23.62456 | -46.65900 | 2600 ft | 13 kts | 327° |
| 2026-05-03 22:43 | -23.62373 | -46.65958 | 2599 ft | 10 kts | 327° |
| 2026-05-03 22:43 | -23.62307 | -46.66004 | 2599 ft | 13 kts | 327° |
| 2026-05-03 22:43 | -23.62271 | -46.66028 | 2599 ft | 2 kts | 328° |
| 2026-05-03 22:44 | -23.62251 | -46.66040 | 2599 ft | 5 kts | 333° |
| 2026-05-03 22:44 | -23.62208 | -46.66064 | 2598 ft | 9 kts | 333° |
| 2026-05-03 22:44 | -23.62148 | -46.66105 | 2598 ft | 12 kts | 327° |
| 2026-05-03 22:44 | -23.62132 | -46.66116 | 2597 ft | 0 kts | 327° |
| 2026-05-03 22:45 | -23.62112 | -46.66129 | 2597 ft | 8 kts | 334° |
| 2026-05-03 22:45 | -23.62046 | -46.66113 | 2594 ft | 13 kts | 52° |
| 2026-05-03 22:46 | -23.62068 | -46.66061 | 2595 ft | 1 kts | 147° |
| 2026-05-03 22:46 | -23.62075 | -46.66057 | 2595 ft | 0 kts | 148° |
| 2026-05-03 22:47 | -23.62159 | -46.66000 | 2597 ft | 44 kts | 148° |
| 2026-05-03 22:47 | -23.62651 | -46.65658 | 2605 ft | 122 kts | 148° |
| 2026-05-03 22:48 | -23.63549 | -46.65025 | 2655 ft | 180 kts | 148° |
| 2026-05-03 22:48 | -23.64638 | -46.64158 | 3137 ft | 209 kts | 138° |
| 2026-05-03 22:48 | -23.65605 | -46.62907 | 3776 ft | 222 kts | 123° |
| 2026-05-03 22:48 | -23.66360 | -46.61371 | 4376 ft | 238 kts | 117° |
| 2026-05-03 22:49 | -23.67107 | -46.59706 | 4898 ft | 249 kts | 117° |
| 2026-05-03 22:49 | -23.67888 | -46.57994 | 5516 ft | 255 kts | 117° |
| 2026-05-03 22:49 | -23.68703 | -46.56263 | 6184 ft | 259 kts | 118° |
| 2026-05-03 22:49 | -23.69555 | -46.54486 | 6617 ft | 278 kts | 118° |
| 2026-05-03 22:50 | -23.70472 | -46.52594 | 7362 ft | 285 kts | 118° |
| 2026-05-03 22:50 | -23.71403 | -46.50675 | 8212 ft | 288 kts | 117° |
| 2026-05-03 22:50 | -23.71945 | -46.48571 | 8983 ft | 293 kts | 91° |
| 2026-05-03 22:50 | -23.71754 | -46.46345 | 9783 ft | 297 kts | 82° |
| 2026-05-03 22:51 | -23.71431 | -46.44096 | 10407 ft | 307 kts | 81° |
| 2026-05-03 22:51 | -23.71068 | -46.41700 | 10583 ft | 331 kts | 81° |
| 2026-05-03 22:51 | -23.70682 | -46.39150 | 10804 ft | 350 kts | 81° |
| 2026-05-03 22:51 | -23.70287 | -46.36496 | 11327 ft | 353 kts | 81° |
| 2026-05-03 22:52 | -23.69911 | -46.33922 | 11912 ft | 335 kts | 81° |
| 2026-05-03 22:52 | -23.69554 | -46.31455 | 12516 ft | 326 kts | 81° |
| 2026-05-03 22:52 | -23.69203 | -46.29008 | 13143 ft | 327 kts | 81° |
| 2026-05-03 22:52 | -23.68851 | -46.26545 | 13772 ft | 330 kts | 81° |
| 2026-05-03 22:53 | -23.68495 | -46.24059 | 14400 ft | 332 kts | 81° |
| 2026-05-03 22:53 | -23.68138 | -46.21562 | 15024 ft | 334 kts | 81° |
| 2026-05-03 22:53 | -23.67779 | -46.19053 | 15648 ft | 335 kts | 81° |
| 2026-05-03 22:53 | -23.67419 | -46.16542 | 16270 ft | 336 kts | 81° |
| 2026-05-03 22:54 | -23.67051 | -46.13987 | 16603 ft | 347 kts | 81° |
| 2026-05-03 22:54 | -23.66674 | -46.11362 | 16968 ft | 354 kts | 81° |
| 2026-05-03 22:54 | -23.66291 | -46.08694 | 17470 ft | 357 kts | 81° |
| 2026-05-03 22:54 | -23.65906 | -46.06015 | 17986 ft | 359 kts | 81° |
| 2026-05-03 22:55 | -23.65523 | -46.03349 | 18444 ft | 362 kts | 81° |
| 2026-05-03 22:55 | -23.65131 | -46.00624 | 18883 ft | 365 kts | 81° |
| 2026-05-03 22:55 | -23.64735 | -45.97878 | 19312 ft | 368 kts | 81° |
| 2026-05-03 22:55 | -23.64336 | -45.95111 | 19730 ft | 371 kts | 81° |
| 2026-05-03 22:56 | -23.63933 | -45.92324 | 20137 ft | 374 kts | 81° |
| 2026-05-03 22:56 | -23.63526 | -45.89510 | 20523 ft | 376 kts | 81° |
| 2026-05-03 22:56 | -23.63117 | -45.86684 | 20894 ft | 379 kts | 81° |
| 2026-05-03 22:56 | -23.62704 | -45.83836 | 21255 ft | 382 kts | 81° |
| 2026-05-03 22:57 | -23.62288 | -45.80969 | 21603 ft | 384 kts | 81° |
| 2026-05-03 22:57 | -23.61869 | -45.78086 | 21939 ft | 386 kts | 81° |
| 2026-05-03 22:57 | -23.61446 | -45.75182 | 22262 ft | 389 kts | 81° |
| 2026-05-03 22:57 | -23.61020 | -45.72262 | 22574 ft | 391 kts | 81° |
| 2026-05-03 22:58 | -23.60591 | -45.69319 | 22790 ft | 396 kts | 81° |
| 2026-05-03 22:58 | -23.60156 | -45.66343 | 23097 ft | 397 kts | 81° |
| 2026-05-03 22:58 | -23.59722 | -45.63378 | 23460 ft | 397 kts | 81° |
| 2026-05-03 22:58 | -23.59285 | -45.60401 | 23740 ft | 399 kts | 81° |
| 2026-05-03 22:59 | -23.58845 | -45.57403 | 23976 ft | 401 kts | 81° |
| 2026-05-03 22:59 | -23.58402 | -45.54385 | 24105 ft | 407 kts | 81° |
| 2026-05-03 22:59 | -23.57951 | -45.51316 | 24249 ft | 411 kts | 81° |
| 2026-05-03 22:59 | -23.57500 | -45.48255 | 24626 ft | 409 kts | 81° |
| 2026-05-03 23:00 | -23.57008 | -45.45193 | 24847 ft | 410 kts | 78° |
| 2026-05-03 23:00 | -23.56399 | -45.42154 | 25005 ft | 411 kts | 77° |
| 2026-05-03 23:00 | -23.55734 | -45.39104 | 25000 ft | 415 kts | 76° |
| 2026-05-03 23:00 | -23.55053 | -45.36036 | 25006 ft | 419 kts | 76° |
| 2026-05-03 23:01 | -23.54372 | -45.32944 | 25007 ft | 420 kts | 77° |
| 2026-05-03 23:01 | -23.53700 | -45.29852 | 24997 ft | 418 kts | 77° |
| 2026-05-03 23:01 | -23.53038 | -45.26771 | 25000 ft | 418 kts | 77° |
| 2026-05-03 23:01 | -23.52379 | -45.23682 | 25002 ft | 418 kts | 77° |
| 2026-05-03 23:02 | -23.51722 | -45.20596 | 25006 ft | 419 kts | 77° |
| 2026-05-03 23:02 | -23.51065 | -45.17506 | 25000 ft | 419 kts | 77° |
| 2026-05-03 23:02 | -23.50408 | -45.14420 | 24998 ft | 418 kts | 77° |
| 2026-05-03 23:02 | -23.49750 | -45.11330 | 25002 ft | 418 kts | 77° |
| 2026-05-03 23:03 | -23.49092 | -45.08249 | 25002 ft | 418 kts | 77° |
| 2026-05-03 23:03 | -23.48438 | -45.05187 | 24984 ft | 409 kts | 77° |
| 2026-05-03 23:03 | -23.47797 | -45.02191 | 24689 ft | 403 kts | 77° |
| 2026-05-03 23:03 | -23.47173 | -44.99274 | 24381 ft | 398 kts | 77° |
| 2026-05-03 23:04 | -23.46538 | -44.96313 | 23971 ft | 394 kts | 77° |
| 2026-05-03 23:04 | -23.45914 | -44.93425 | 23579 ft | 390 kts | 77° |
| 2026-05-03 23:04 | -23.45282 | -44.90564 | 23183 ft | 387 kts | 76° |
| 2026-05-03 23:04 | -23.44659 | -44.87765 | 22792 ft | 383 kts | 76° |
| 2026-05-03 23:05 | -23.44033 | -44.84960 | 22397 ft | 380 kts | 76° |
| 2026-05-03 23:05 | -23.43412 | -44.82176 | 22003 ft | 377 kts | 76° |
| 2026-05-03 23:05 | -23.42797 | -44.79415 | 21613 ft | 374 kts | 76° |
| 2026-05-03 23:05 | -23.42186 | -44.76675 | 21224 ft | 371 kts | 76° |
| 2026-05-03 23:06 | -23.41581 | -44.73957 | 20838 ft | 368 kts | 76° |
| 2026-05-03 23:06 | -23.40981 | -44.71264 | 20456 ft | 365 kts | 76° |
| 2026-05-03 23:06 | -23.40383 | -44.68586 | 20075 ft | 362 kts | 76° |
| 2026-05-03 23:06 | -23.39791 | -44.65932 | 19697 ft | 360 kts | 76° |
| 2026-05-03 23:07 | -23.39203 | -44.63298 | 19322 ft | 357 kts | 76° |
| 2026-05-03 23:07 | -23.38619 | -44.60686 | 18949 ft | 354 kts | 76° |
| 2026-05-03 23:07 | -23.38037 | -44.58085 | 18577 ft | 352 kts | 76° |
| 2026-05-03 23:07 | -23.37460 | -44.55510 | 18209 ft | 349 kts | 76° |
| 2026-05-03 23:08 | -23.36886 | -44.52946 | 17842 ft | 347 kts | 76° |
| 2026-05-03 23:08 | -23.36316 | -44.50405 | 17477 ft | 345 kts | 76° |
| 2026-05-03 23:08 | -23.35750 | -44.47883 | 17115 ft | 342 kts | 76° |
| 2026-05-03 23:08 | -23.35186 | -44.45374 | 16754 ft | 340 kts | 76° |
| 2026-05-03 23:09 | -23.34625 | -44.42880 | 16395 ft | 338 kts | 76° |
| 2026-05-03 23:09 | -23.33894 | -44.40465 | 16033 ft | 336 kts | 67° |
| 2026-05-03 23:09 | -23.32927 | -44.38166 | 15687 ft | 333 kts | 64° |
| 2026-05-03 23:09 | -23.31905 | -44.35907 | 15332 ft | 331 kts | 64° |
| 2026-05-03 23:10 | -23.30887 | -44.33665 | 14979 ft | 329 kts | 64° |
| 2026-05-03 23:10 | -23.29884 | -44.31421 | 14633 ft | 331 kts | 64° |
| 2026-05-03 23:10 | -23.28858 | -44.29091 | 14302 ft | 355 kts | 65° |
| 2026-05-03 23:10 | -23.27758 | -44.26568 | 13901 ft | 383 kts | 65° |
| 2026-05-03 23:11 | -23.26600 | -44.23893 | 13471 ft | 394 kts | 65° |
| 2026-05-03 23:11 | -23.25438 | -44.21199 | 13031 ft | 393 kts | 65° |
| 2026-05-03 23:11 | -23.24285 | -44.18523 | 12597 ft | 388 kts | 65° |
| 2026-05-03 23:11 | -23.23147 | -44.15879 | 12176 ft | 385 kts | 65° |
| 2026-05-03 23:12 | -23.22017 | -44.13257 | 11763 ft | 382 kts | 65° |
| 2026-05-03 23:12 | -23.20893 | -44.10653 | 11353 ft | 379 kts | 65° |
| 2026-05-03 23:12 | -23.19776 | -44.08066 | 10968 ft | 376 kts | 65° |
| 2026-05-03 23:12 | -23.18647 | -44.05565 | 10783 ft | 373 kts | 63° |
| 2026-05-03 23:13 | -23.17476 | -44.03038 | 10583 ft | 376 kts | 63° |
| 2026-05-03 23:13 | -23.16300 | -44.00503 | 10378 ft | 375 kts | 63° |
| 2026-05-03 23:13 | -23.15150 | -43.97970 | 10175 ft | 373 kts | 64° |
| 2026-05-03 23:13 | -23.14053 | -43.95427 | 9982 ft | 370 kts | 65° |
| 2026-05-03 23:14 | -23.13002 | -43.92945 | 9966 ft | 353 kts | 65° |
| 2026-05-03 23:14 | -23.12002 | -43.90578 | 9945 ft | 336 kts | 65° |
| 2026-05-03 23:14 | -23.11045 | -43.88322 | 9927 ft | 321 kts | 65° |
| 2026-05-03 23:14 | -23.10126 | -43.86165 | 9866 ft | 309 kts | 65° |
| 2026-05-03 23:15 | -23.09241 | -43.84091 | 9788 ft | 297 kts | 65° |
| 2026-05-03 23:15 | -23.08384 | -43.82088 | 9675 ft | 288 kts | 65° |
| 2026-05-03 23:15 | -23.07549 | -43.80137 | 9339 ft | 282 kts | 65° |
| 2026-05-03 23:15 | -23.06722 | -43.78206 | 8847 ft | 282 kts | 65° |
| 2026-05-03 23:16 | -23.05903 | -43.76295 | 8542 ft | 278 kts | 65° |
| 2026-05-03 23:16 | -23.05094 | -43.74409 | 8361 ft | 273 kts | 65° |
| 2026-05-03 23:16 | -23.04287 | -43.72529 | 8213 ft | 277 kts | 65° |
| 2026-05-03 23:16 | -23.03473 | -43.70635 | 8074 ft | 278 kts | 65° |
| 2026-05-03 23:17 | -23.02651 | -43.68722 | 8022 ft | 280 kts | 65° |
| 2026-05-03 23:17 | -23.01831 | -43.66811 | 8007 ft | 279 kts | 65° |
| 2026-05-03 23:17 | -23.01002 | -43.64882 | 7552 ft | 286 kts | 65° |
| 2026-05-03 23:17 | -23.00170 | -43.62945 | 7275 ft | 280 kts | 65° |
| 2026-05-03 23:18 | -22.99350 | -43.61036 | 7072 ft | 278 kts | 65° |
| 2026-05-03 23:18 | -22.98539 | -43.59148 | 6860 ft | 274 kts | 65° |
| 2026-05-03 23:18 | -22.97736 | -43.57281 | 6659 ft | 272 kts | 65° |
| 2026-05-03 23:18 | -22.96938 | -43.55422 | 6466 ft | 271 kts | 65° |
| 2026-05-03 23:19 | -22.96144 | -43.53575 | 6269 ft | 270 kts | 65° |
| 2026-05-03 23:19 | -22.95354 | -43.51737 | 6081 ft | 269 kts | 65° |
| 2026-05-03 23:19 | -22.94562 | -43.49897 | 5835 ft | 270 kts | 65° |
| 2026-05-03 23:19 | -22.93769 | -43.48050 | 5578 ft | 269 kts | 65° |
| 2026-05-03 23:20 | -22.92983 | -43.46221 | 5302 ft | 264 kts | 65° |
| 2026-05-03 23:20 | -22.92218 | -43.44444 | 5043 ft | 256 kts | 65° |
| 2026-05-03 23:20 | -22.91726 | -43.43300 | 4890 ft | 249 kts | 65° |
| 2026-05-03 23:20 | -22.91072 | -43.41607 | 4655 ft | 240 kts | 77° |
| 2026-05-03 23:21 | -22.90848 | -43.39845 | 4435 ft | 231 kts | 84° |
| 2026-05-03 23:21 | -22.90640 | -43.38141 | 4203 ft | 225 kts | 82° |
| 2026-05-03 23:21 | -22.90397 | -43.36493 | 3985 ft | 218 kts | 81° |
| 2026-05-03 23:21 | -22.90131 | -43.34885 | 3698 ft | 218 kts | 80° |
| 2026-05-03 23:22 | -22.89551 | -43.31668 | 3195 ft | 216 kts | 79° |
| 2026-05-03 23:22 | -22.89254 | -43.30076 | 2978 ft | 214 kts | 79° |
| 2026-05-03 23:22 | -22.88957 | -43.28499 | 2766 ft | 212 kts | 79° |
| 2026-05-03 23:23 | -22.88674 | -43.26961 | 2578 ft | 202 kts | 83° |
| 2026-05-03 23:23 | -22.88876 | -43.25518 | 2311 ft | 189 kts | 115° |
| 2026-05-03 23:23 | -22.89378 | -43.24262 | 2092 ft | 175 kts | 113° |
| 2026-05-03 23:23 | -22.89813 | -43.23088 | 1879 ft | 161 kts | 112° |
| 2026-05-03 23:24 | -22.90220 | -43.21987 | 1772 ft | 157 kts | 112° |
| 2026-05-03 23:24 | -22.90669 | -43.20918 | 1517 ft | 152 kts | 117° |
| 2026-05-03 23:24 | -22.91126 | -43.19892 | 1247 ft | 151 kts | 116° |
| 2026-05-03 23:24 | -22.91626 | -43.18906 | 986 ft | 147 kts | 125° |
| 2026-05-03 23:25 | -22.92348 | -43.18166 | 882 ft | 144 kts | 153° |
| 2026-05-03 23:25 | -22.93322 | -43.17900 | 731 ft | 147 kts | 174° |
| 2026-05-03 23:25 | -22.94317 | -43.17669 | 649 ft | 148 kts | 155° |
| 2026-05-03 23:25 | -22.94759 | -43.16746 | 558 ft | 151 kts | 76° |
| 2026-05-03 23:26 | -22.93983 | -43.16088 | 436 ft | 154 kts | 4° |
| 2026-05-03 23:26 | -22.92925 | -43.16152 | 213 ft | 149 kts | 356° |
| 2026-05-03 23:26 | -22.91906 | -43.16226 | 68 ft | 146 kts | 355° |
| 2026-05-03 23:26 | -22.90903 | -43.16293 | 22 ft | 143 kts | 357° |
| 2026-05-03 23:27 | -22.89861 | -43.16324 | 321 ft | 163 kts | 0° |
| 2026-05-03 23:27 | -22.88711 | -43.16238 | 1259 ft | 159 kts | 6° |
| 2026-05-03 23:27 | -22.87630 | -43.16108 | 2393 ft | 156 kts | 6° |
| 2026-05-03 23:27 | -22.86394 | -43.15957 | 2693 ft | 212 kts | 7° |
| 2026-05-03 23:28 | -22.84988 | -43.15242 | 3164 ft | 234 kts | 47° |
| 2026-05-03 23:28 | -22.84205 | -43.13667 | 3202 ft | 244 kts | 82° |
| 2026-05-03 23:28 | -22.84477 | -43.11927 | 3154 ft | 235 kts | 121° |
| 2026-05-03 23:28 | -22.85554 | -43.10636 | 3135 ft | 231 kts | 134° |
| 2026-05-03 23:29 | -22.86585 | -43.09294 | 3119 ft | 232 kts | 128° |
| 2026-05-03 23:29 | -22.87578 | -43.07903 | 3105 ft | 234 kts | 128° |
| 2026-05-03 23:29 | -22.88556 | -43.06493 | 3115 ft | 234 kts | 127° |
| 2026-05-03 23:29 | -22.89509 | -43.05055 | 3111 ft | 235 kts | 126° |
| 2026-05-03 23:30 | -22.90441 | -43.03599 | 3094 ft | 236 kts | 125° |
| 2026-05-03 23:30 | -22.91363 | -43.02118 | 3084 ft | 238 kts | 124° |
| 2026-05-03 23:30 | -22.92273 | -43.00625 | 3102 ft | 236 kts | 124° |
| 2026-05-03 23:30 | -22.93167 | -42.99140 | 3108 ft | 235 kts | 123° |
| 2026-05-03 23:31 | -22.94047 | -42.97663 | 3111 ft | 232 kts | 123° |
| 2026-05-03 23:31 | -22.94917 | -42.96192 | 3115 ft | 231 kts | 123° |
| 2026-05-03 23:31 | -22.95781 | -42.94726 | 3113 ft | 230 kts | 123° |
| 2026-05-03 23:31 | -22.96641 | -42.93262 | 3112 ft | 230 kts | 123° |
| 2026-05-03 23:32 | -22.97496 | -42.91802 | 3112 ft | 229 kts | 123° |
| 2026-05-03 23:32 | -22.98347 | -42.90346 | 3111 ft | 228 kts | 123° |
| 2026-05-03 23:32 | -22.99194 | -42.88896 | 3110 ft | 227 kts | 123° |
| 2026-05-03 23:32 | -23.00044 | -42.87439 | 3122 ft | 230 kts | 123° |
| 2026-05-03 23:33 | -23.00906 | -42.85961 | 3122 ft | 234 kts | 123° |
| 2026-05-03 23:33 | -23.01777 | -42.84467 | 3114 ft | 234 kts | 123° |
| 2026-05-03 23:33 | -23.02634 | -42.82996 | 3107 ft | 233 kts | 123° |
| 2026-05-03 23:33 | -23.03582 | -42.81583 | 3092 ft | 232 kts | 141° |
| 2026-05-03 23:34 | -23.05036 | -42.80983 | 3111 ft | 226 kts | 182° |
| 2026-05-03 23:34 | -23.06516 | -42.81470 | 3126 ft | 225 kts | 211° |
| 2026-05-03 23:34 | -23.07711 | -42.82580 | 3121 ft | 229 kts | 228° |
| 2026-05-03 23:34 | -23.08743 | -42.83908 | 3115 ft | 231 kts | 231° |
| 2026-05-03 23:35 | -23.09751 | -42.85263 | 3104 ft | 230 kts | 231° |
| 2026-05-03 23:35 | -23.10757 | -42.86616 | 3101 ft | 230 kts | 231° |
| 2026-05-03 23:35 | -23.11765 | -42.87962 | 3101 ft | 229 kts | 231° |
| 2026-05-03 23:35 | -23.12772 | -42.89301 | 3103 ft | 228 kts | 230° |
| 2026-05-03 23:36 | -23.13778 | -42.90632 | 3167 ft | 228 kts | 230° |
| 2026-05-03 23:36 | -23.14801 | -42.91981 | 3586 ft | 235 kts | 230° |
| 2026-05-03 23:36 | -23.15838 | -42.93345 | 4586 ft | 234 kts | 230° |
| 2026-05-03 23:36 | -23.16929 | -42.94779 | 5111 ft | 258 kts | 230° |
| 2026-05-03 23:37 | -23.18114 | -42.96336 | 5296 ft | 273 kts | 230° |
| 2026-05-03 23:37 | -23.19231 | -42.97999 | 5284 ft | 270 kts | 245° |
| 2026-05-03 23:37 | -23.19569 | -42.99913 | 5299 ft | 250 kts | 274° |
| 2026-05-03 23:37 | -23.19132 | -43.01656 | 5239 ft | 233 kts | 294° |
| 2026-05-03 23:38 | -23.18203 | -43.03104 | 4876 ft | 232 kts | 314° |
| 2026-05-03 23:38 | -23.17007 | -43.04250 | 4587 ft | 227 kts | 320° |
| 2026-05-03 23:38 | -23.15794 | -43.05310 | 4332 ft | 221 kts | 320° |
| 2026-05-03 23:38 | -23.14610 | -43.06346 | 4086 ft | 216 kts | 320° |
| 2026-05-03 23:39 | -23.13452 | -43.07367 | 3858 ft | 214 kts | 320° |
| 2026-05-03 23:39 | -23.12299 | -43.08391 | 3637 ft | 214 kts | 320° |
| 2026-05-03 23:39 | -23.11145 | -43.09418 | 3406 ft | 214 kts | 320° |
| 2026-05-03 23:39 | -23.09992 | -43.10445 | 3175 ft | 214 kts | 320° |
| 2026-05-03 23:40 | -23.08812 | -43.11415 | 2929 ft | 212 kts | 333° |
| 2026-05-03 23:40 | -23.07384 | -43.11649 | 2663 ft | 211 kts | 12° |
| 2026-05-03 23:40 | -23.06097 | -43.10919 | 2425 ft | 213 kts | 46° |
| 2026-05-03 23:40 | -23.05393 | -43.09533 | 2183 ft | 212 kts | 81° |
| 2026-05-03 23:41 | -23.05534 | -43.07982 | 2007 ft | 207 kts | 116° |
| 2026-05-03 23:41 | -23.06361 | -43.06772 | 1920 ft | 202 kts | 140° |
| 2026-05-03 23:41 | -23.07447 | -43.05789 | 1889 ft | 205 kts | 141° |
| 2026-05-03 23:41 | -23.08565 | -43.04778 | 1848 ft | 208 kts | 141° |
| 2026-05-03 23:42 | -23.09664 | -43.03780 | 1815 ft | 208 kts | 141° |
| 2026-05-03 23:42 | -23.10772 | -43.02778 | 1805 ft | 206 kts | 143° |
| 2026-05-03 23:42 | -23.12069 | -43.02229 | 1801 ft | 201 kts | 183° |
| 2026-05-03 23:42 | -23.13400 | -43.02646 | 1808 ft | 205 kts | 216° |
| 2026-05-03 23:43 | -23.14273 | -43.03842 | 1817 ft | 207 kts | 252° |
| 2026-05-03 23:43 | -23.14282 | -43.05454 | 1863 ft | 236 kts | 285° |
| 2026-05-03 23:43 | -23.13677 | -43.07184 | 1818 ft | 247 kts | 294° |
| 2026-05-03 23:43 | -23.12945 | -43.08879 | 1820 ft | 248 kts | 295° |
| 2026-05-03 23:44 | -23.12187 | -43.10582 | 2147 ft | 253 kts | 295° |
| 2026-05-03 23:44 | -23.11411 | -43.12315 | 3275 ft | 255 kts | 295° |
| 2026-05-03 23:44 | -23.10642 | -43.14049 | 4628 ft | 256 kts | 295° |
| 2026-05-03 23:44 | -23.09866 | -43.15821 | 5520 ft | 264 kts | 295° |
| 2026-05-03 23:45 | -23.09083 | -43.17627 | 5803 ft | 266 kts | 294° |
| 2026-05-03 23:45 | -23.08296 | -43.19454 | 5800 ft | 267 kts | 294° |
| 2026-05-03 23:45 | -23.07515 | -43.21276 | 5810 ft | 266 kts | 294° |
| 2026-05-03 23:45 | -23.06737 | -43.23095 | 5816 ft | 266 kts | 294° |
| 2026-05-03 23:46 | -23.05960 | -43.24917 | 5816 ft | 266 kts | 294° |
| 2026-05-03 23:46 | -23.05234 | -43.26761 | 5805 ft | 266 kts | 285° |
| 2026-05-03 23:46 | -23.04933 | -43.28733 | 5820 ft | 265 kts | 277° |
| 2026-05-03 23:46 | -23.04696 | -43.30717 | 5808 ft | 265 kts | 277° |
| 2026-05-03 23:47 | -23.04456 | -43.32699 | 5814 ft | 265 kts | 277° |
| 2026-05-03 23:47 | -23.04214 | -43.34684 | 5813 ft | 265 kts | 277° |
| 2026-05-03 23:47 | -23.03972 | -43.36667 | 5812 ft | 265 kts | 277° |